sensor_id;sensor_type;location;lat;lon;timestamp;pressure;altitude;pressure_sealevel;temperature;humidity
70968;BME280;58629;48.808;8.820;2023-09-19T00:00:30;96750.47;;;16.32;99.68
70968;BME280;58629;48.808;8.820;2023-09-19T00:02:58;96753.88;;;16.32;99.71
70968;BME280;58629;48.808;8.820;2023-09-19T00:05:30;96755.06;;;16.31;99.83
70968;BME280;58629;48.808;8.820;2023-09-19T00:08:00;96762.50;;;16.27;100.00
70968;BME280;58629;48.808;8.820;2023-09-19T00:10:27;96759.09;;;16.27;100.00
70968;BME280;58629;48.808;8.820;2023-09-19T00:12:56;96757.91;;;16.28;100.00
70968;BME280;58629;48.808;8.820;2023-09-19T00:15:24;96763.84;;;16.23;100.00
70968;BME280;58629;48.808;8.820;2023-09-19T00:17:49;96760.44;;;16.22;100.00
70968;BME280;58629;48.808;8.820;2023-09-19T00:20:17;96766.25;;;16.21;100.00
70968;BME280;58629;48.808;8.820;2023-09-19T00:22:44;96761.53;;;16.16;100.00
70968;BME280;58629;48.808;8.820;2023-09-19T00:25:10;96766.13;;;16.15;100.00
70968;BME280;58629;48.808;8.820;2023-09-19T00:27:39;96756.59;;;16.14;100.00
70968;BME280;58629;48.808;8.820;2023-09-19T00:30:06;96770.41;;;16.13;100.00
70968;BME280;58629;48.808;8.820;2023-09-19T00:32:34;96760.19;;;16.11;100.00
70968;BME280;58629;48.808;8.820;2023-09-19T00:34:59;96768.84;;;16.06;100.00
70968;BME280;58629;48.808;8.820;2023-09-19T00:37:25;96772.22;;;16.07;100.00
70968;BME280;58629;48.808;8.820;2023-09-19T00:39:50;96765.41;;;16.06;100.00
70968;BME280;58629;48.808;8.820;2023-09-19T00:42:19;96766.16;;;16.06;100.00
70968;BME280;58629;48.808;8.820;2023-09-19T00:44:47;96768.84;;;16.06;100.00
70968;BME280;58629;48.808;8.820;2023-09-19T00:47:12;96763.19;;;16.04;100.00
70968;BME280;58629;48.808;8.820;2023-09-19T00:49:45;96772.69;;;16.05;100.00
70968;BME280;58629;48.808;8.820;2023-09-19T00:52:15;96765.13;;;16.04;100.00
70968;BME280;58629;48.808;8.820;2023-09-19T00:54:45;96771.34;;;16.01;100.00
70968;BME280;58629;48.808;8.820;2023-09-19T00:57:11;96775.22;;;16.00;100.00
70968;BME280;58629;48.808;8.820;2023-09-19T00:59:36;96773.72;;;15.99;100.00
70968;BME280;58629;48.808;8.820;2023-09-19T01:02:02;96772.84;;;15.93;100.00
70968;BME280;58629;48.808;8.820;2023-09-19T01:04:29;96772.72;;;15.87;100.00
70968;BME280;58629;48.808;8.820;2023-09-19T01:06:54;96780.44;;;15.85;100.00
70968;BME280;58629;48.808;8.820;2023-09-19T01:09:20;96785.66;;;15.80;100.00
70968;BME280;58629;48.808;8.820;2023-09-19T01:11:48;96782.41;;;15.76;100.00
70968;BME280;58629;48.808;8.820;2023-09-19T01:14:24;96787.44;;;15.74;100.00
70968;BME280;58629;48.808;8.820;2023-09-19T01:30:17;96788.16;;;15.83;98.87
70968;BME280;58629;48.808;8.820;2023-09-19T01:32:49;96797.66;;;15.84;98.73
70968;BME280;58629;48.808;8.820;2023-09-19T01:35:17;96800.34;;;15.84;98.70
70968;BME280;58629;48.808;8.820;2023-09-19T01:37:43;96803.72;;;15.85;99.05
70968;BME280;58629;48.808;8.820;2023-09-19T01:40:10;96805.09;;;15.80;99.59
70968;BME280;58629;48.808;8.820;2023-09-19T01:42:54;96807.63;;;15.75;100.00
70968;BME280;58629;48.808;8.820;2023-09-19T01:45:46;96811.19;;;15.63;100.00
70968;BME280;58629;48.808;8.820;2023-09-19T01:48:27;96815.06;;;15.52;100.00
70968;BME280;58629;48.808;8.820;2023-09-19T01:51:05;96821.56;;;15.51;100.00
70968;BME280;58629;48.808;8.820;2023-09-19T01:53:44;96820.69;;;15.45;100.00
70968;BME280;58629;48.808;8.820;2023-09-19T01:56:21;96820.50;;;15.40;100.00
70968;BME280;58629;48.808;8.820;2023-09-19T01:58:49;96826.75;;;15.37;100.00
70968;BME280;58629;48.808;8.820;2023-09-19T02:01:19;96832.66;;;15.32;100.00
70968;BME280;58629;48.808;8.820;2023-09-19T02:03:47;96829.69;;;15.30;100.00
70968;BME280;58629;48.808;8.820;2023-09-19T02:06:14;96834.72;;;15.28;100.00
70968;BME280;58629;48.808;8.820;2023-09-19T02:08:40;96823.75;;;15.26;100.00
70968;BME280;58629;48.808;8.820;2023-09-19T02:11:06;96827.31;;;15.23;100.00
70968;BME280;58629;48.808;8.820;2023-09-19T02:13:31;96821.69;;;15.21;100.00
70968;BME280;58629;48.808;8.820;2023-09-19T02:15:57;96823.31;;;15.18;100.00
70968;BME280;58629;48.808;8.820;2023-09-19T02:18:22;96825.22;;;15.18;100.00
70968;BME280;58629;48.808;8.820;2023-09-19T02:20:48;96822.25;;;15.16;100.00
70968;BME280;58629;48.808;8.820;2023-09-19T02:23:14;96825.22;;;15.09;100.00
70968;BME280;58629;48.808;8.820;2023-09-19T02:25:40;96829.81;;;15.08;100.00
70968;BME280;58629;48.808;8.820;2023-09-19T02:28:06;96825.69;;;15.07;100.00
70968;BME280;58629;48.808;8.820;2023-09-19T02:30:32;96835.91;;;15.09;100.00
70968;BME280;58629;48.808;8.820;2023-09-19T02:32:57;96843.00;;;15.12;100.00
70968;BME280;58629;48.808;8.820;2023-09-19T02:35:23;96842.13;;;15.15;100.00
70968;BME280;58629;48.808;8.820;2023-09-19T02:37:48;96843.16;;;15.17;100.00
70968;BME280;58629;48.808;8.820;2023-09-19T02:40:14;96847.63;;;15.20;100.00
70968;BME280;58629;48.808;8.820;2023-09-19T02:42:53;96840.66;;;15.23;100.00
70968;BME280;58629;48.808;8.820;2023-09-19T02:45:19;96843.63;;;15.25;100.00
70968;BME280;58629;48.808;8.820;2023-09-19T02:47:45;96845.84;;;15.26;100.00
70968;BME280;58629;48.808;8.820;2023-09-19T02:50:12;96844.66;;;15.27;100.00
70968;BME280;58629;48.808;8.820;2023-09-19T02:52:38;96840.81;;;15.28;100.00
70968;BME280;58629;48.808;8.820;2023-09-19T02:55:06;96841.25;;;15.27;100.00
70968;BME280;58629;48.808;8.820;2023-09-19T02:57:34;96847.19;;;15.31;100.00
70968;BME280;58629;48.808;8.820;2023-09-19T02:59:59;96846.44;;;15.30;100.00
70968;BME280;58629;48.808;8.820;2023-09-19T03:02:26;96846.44;;;15.30;100.00
70968;BME280;58629;48.808;8.820;2023-09-19T03:04:53;96849.41;;;15.32;100.00
70968;BME280;58629;48.808;8.820;2023-09-19T03:07:18;96844.06;;;15.32;100.00
70968;BME280;58629;48.808;8.820;2023-09-19T03:09:43;96850.00;;;15.36;100.00
70968;BME280;58629;48.808;8.820;2023-09-19T03:12:10;96852.66;;;15.36;100.00
70968;BME280;58629;48.808;8.820;2023-09-19T03:14:35;96858.00;;;15.36;100.00
70968;BME280;58629;48.808;8.820;2023-09-19T03:17:01;96866.19;;;15.42;100.00
70968;BME280;58629;48.808;8.820;2023-09-19T03:19:29;96859.38;;;15.50;100.00
70968;BME280;58629;48.808;8.820;2023-09-19T03:21:55;96857.16;;;15.57;100.00
70968;BME280;58629;48.808;8.820;2023-09-19T03:24:22;96853.59;;;15.60;100.00
70968;BME280;58629;48.808;8.820;2023-09-19T03:26:48;96852.25;;;15.65;100.00
70968;BME280;58629;48.808;8.820;2023-09-19T03:29:14;96858.63;;;15.68;100.00
70968;BME280;58629;48.808;8.820;2023-09-19T03:31:40;96854.78;;;15.69;100.00
70968;BME280;58629;48.808;8.820;2023-09-19T03:34:06;96870.22;;;15.65;100.00
70968;BME280;58629;48.808;8.820;2023-09-19T03:36:31;96865.47;;;15.50;100.00
70968;BME280;58629;48.808;8.820;2023-09-19T03:38:57;96861.44;;;15.46;100.00
70968;BME280;58629;48.808;8.820;2023-09-19T03:41:22;96871.38;;;15.45;100.00
70968;BME280;58629;48.808;8.820;2023-09-19T03:43:48;96871.38;;;15.45;100.00
70968;BME280;58629;48.808;8.820;2023-09-19T03:46:14;96876.56;;;15.49;100.00
70968;BME280;58629;48.808;8.820;2023-09-19T03:48:40;96867.22;;;15.53;100.00
70968;BME280;58629;48.808;8.820;2023-09-19T03:51:05;96857.59;;;15.56;100.00
70968;BME280;58629;48.808;8.820;2023-09-19T03:53:30;96860.28;;;15.56;100.00
70968;BME280;58629;48.808;8.820;2023-09-19T03:55:56;96859.97;;;15.54;100.00
70968;BME280;58629;48.808;8.820;2023-09-19T03:58:22;96854.63;;;15.54;100.00
70968;BME280;58629;48.808;8.820;2023-09-19T04:00:47;96852.56;;;15.58;100.00
70968;BME280;58629;48.808;8.820;2023-09-19T04:03:15;96860.13;;;15.59;100.00
70968;BME280;58629;48.808;8.820;2023-09-19T04:05:45;96858.34;;;15.56;100.00
70968;BME280;58629;48.808;8.820;2023-09-19T04:08:11;96861.75;;;15.57;100.00
70968;BME280;58629;48.808;8.820;2023-09-19T04:10:37;96864.41;;;15.57;100.00
70968;BME280;58629;48.808;8.820;2023-09-19T04:13:03;96864.28;;;15.60;100.00
70968;BME280;58629;48.808;8.820;2023-09-19T04:15:29;96857.75;;;15.61;100.00
70968;BME280;58629;48.808;8.820;2023-09-19T04:17:54;96863.38;;;15.63;100.00
70968;BME280;58629;48.808;8.820;2023-09-19T04:20:20;96869.47;;;15.64;100.00
70968;BME280;58629;48.808;8.820;2023-09-19T04:22:47;96870.50;;;15.67;100.00
70968;BME280;58629;48.808;8.820;2023-09-19T04:25:13;96874.19;;;15.69;100.00
70968;BME280;58629;48.808;8.820;2023-09-19T04:27:38;96881.91;;;15.67;100.00
70968;BME280;58629;48.808;8.820;2023-09-19T04:30:05;96891.56;;;15.65;100.00
70968;BME280;58629;48.808;8.820;2023-09-19T04:32:35;96894.81;;;15.59;100.00
70968;BME280;58629;48.808;8.820;2023-09-19T04:35:01;96896.88;;;15.55;100.00
70968;BME280;58629;48.808;8.820;2023-09-19T04:37:30;96901.63;;;15.51;100.00
70968;BME280;58629;48.808;8.820;2023-09-19T04:39:55;96891.56;;;15.46;100.00
70968;BME280;58629;48.808;8.820;2023-09-19T04:42:21;96900.56;;;15.49;100.00
70968;BME280;58629;48.808;8.820;2023-09-19T04:44:50;96901.78;;;15.48;100.00
70968;BME280;58629;48.808;8.820;2023-09-19T04:47:18;96899.72;;;15.43;100.00
70968;BME280;58629;48.808;8.820;2023-09-19T04:49:44;96905.13;;;15.39;100.00
70968;BME280;58629;48.808;8.820;2023-09-19T04:52:09;96910.31;;;15.34;100.00
70968;BME280;58629;48.808;8.820;2023-09-19T04:54:34;96912.31;;;15.51;100.00
70968;BME280;58629;48.808;8.820;2023-09-19T04:57:00;96922.56;;;15.62;100.00
70968;BME280;58629;48.808;8.820;2023-09-19T04:59:26;96923.06;;;15.30;100.00
70968;BME280;58629;48.808;8.820;2023-09-19T05:01:51;96928.94;;;15.16;100.00
70968;BME280;58629;48.808;8.820;2023-09-19T05:04:16;96945.34;;;14.96;100.00
70968;BME280;58629;48.808;8.820;2023-09-19T05:06:41;96937.91;;;14.91;100.00
70968;BME280;58629;48.808;8.820;2023-09-19T05:09:07;96945.00;;;14.85;100.00
70968;BME280;58629;48.808;8.820;2023-09-19T05:11:33;96944.84;;;14.80;100.00
70968;BME280;58629;48.808;8.820;2023-09-19T05:13:59;96951.03;;;14.76;100.00
70968;BME280;58629;48.808;8.820;2023-09-19T05:16:29;96954.44;;;14.77;100.00
70968;BME280;58629;48.808;8.820;2023-09-19T05:18:56;96953.06;;;14.72;100.00
70968;BME280;58629;48.808;8.820;2023-09-19T05:21:22;96957.03;;;14.68;100.00
70968;BME280;58629;48.808;8.820;2023-09-19T05:23:48;96961.03;;;14.63;100.00
70968;BME280;58629;48.808;8.820;2023-09-19T05:26:15;96961.16;;;14.60;100.00
70968;BME280;58629;48.808;8.820;2023-09-19T05:28:41;96968.22;;;14.54;100.00
70968;BME280;58629;48.808;8.820;2023-09-19T05:31:07;96973.81;;;14.47;100.00
70968;BME280;58629;48.808;8.820;2023-09-19T05:33:32;96981.50;;;14.45;100.00
70968;BME280;58629;48.808;8.820;2023-09-19T05:35:58;96970.34;;;14.37;100.00
70968;BME280;58629;48.808;8.820;2023-09-19T05:38:23;96982.53;;;14.26;100.00
70968;BME280;58629;48.808;8.820;2023-09-19T05:40:49;96980.09;;;14.19;100.00
70968;BME280;58629;48.808;8.820;2023-09-19T05:43:14;96986.75;;;14.14;100.00
70968;BME280;58629;48.808;8.820;2023-09-19T05:45:40;96991.94;;;14.18;100.00
70968;BME280;58629;48.808;8.820;2023-09-19T05:48:13;96990.72;;;14.31;100.00
70968;BME280;58629;48.808;8.820;2023-09-19T05:50:39;96997.13;;;14.34;100.00
70968;BME280;58629;48.808;8.820;2023-09-19T05:53:05;97011.25;;;14.43;100.00
70968;BME280;58629;48.808;8.820;2023-09-19T05:55:31;97001.13;;;14.38;100.00
70968;BME280;58629;48.808;8.820;2023-09-19T05:57:56;97004.22;;;14.37;100.00
70968;BME280;58629;48.808;8.820;2023-09-19T06:00:23;97005.34;;;14.48;100.00
70968;BME280;58629;48.808;8.820;2023-09-19T06:02:56;97015.81;;;14.43;100.00
70968;BME280;58629;48.808;8.820;2023-09-19T06:05:22;97016.00;;;14.48;100.00
70968;BME280;58629;48.808;8.820;2023-09-19T06:07:48;97021.81;;;14.56;100.00
70968;BME280;58629;48.808;8.820;2023-09-19T06:10:13;97025.72;;;14.64;100.00
70968;BME280;58629;48.808;8.820;2023-09-19T06:12:41;97021.28;;;14.61;100.00
70968;BME280;58629;48.808;8.820;2023-09-19T06:15:10;97026.25;;;14.71;100.00
70968;BME280;58629;48.808;8.820;2023-09-19T06:17:47;97028.94;;;14.81;100.00
70968;BME280;58629;48.808;8.820;2023-09-19T06:20:13;97021.56;;;14.85;100.00
70968;BME280;58629;48.808;8.820;2023-09-19T06:22:40;97018.31;;;14.90;100.00
70968;BME280;58629;48.808;8.820;2023-09-19T06:25:07;97027.94;;;14.87;100.00
70968;BME280;58629;48.808;8.820;2023-09-19T06:27:32;97026.06;;;14.97;100.00
70968;BME280;58629;48.808;8.820;2023-09-19T06:29:58;97028.75;;;14.97;100.00
70968;BME280;58629;48.808;8.820;2023-09-19T06:32:29;97030.63;;;14.87;100.00
70968;BME280;58629;48.808;8.820;2023-09-19T06:34:54;97023.78;;;14.86;100.00
70968;BME280;58629;48.808;8.820;2023-09-19T06:37:20;97030.41;;;14.82;100.00
70968;BME280;58629;48.808;8.820;2023-09-19T06:39:46;97024.22;;;14.85;100.00
70968;BME280;58629;48.808;8.820;2023-09-19T06:42:13;97030.00;;;14.83;100.00
70968;BME280;58629;48.808;8.820;2023-09-19T06:44:38;97039.28;;;14.78;100.00
70968;BME280;58629;48.808;8.820;2023-09-19T06:47:04;97031.91;;;14.83;100.00
70968;BME280;58629;48.808;8.820;2023-09-19T06:49:30;97034.44;;;14.86;100.00
70968;BME280;58629;48.808;8.820;2023-09-19T06:51:55;97032.22;;;14.85;100.00
70968;BME280;58629;48.808;8.820;2023-09-19T06:54:22;97037.28;;;14.92;100.00
70968;BME280;58629;48.808;8.820;2023-09-19T06:56:47;97039.41;;;14.97;100.00
70968;BME280;58629;48.808;8.820;2023-09-19T06:59:13;97036.59;;;15.00;100.00
70968;BME280;58629;48.808;8.820;2023-09-19T07:01:40;97050.25;;;15.02;100.00
70968;BME280;58629;48.808;8.820;2023-09-19T07:04:06;97046.81;;;15.02;100.00
70968;BME280;58629;48.808;8.820;2023-09-19T07:06:31;97060.78;;;15.06;100.00
70968;BME280;58629;48.808;8.820;2023-09-19T07:08:56;97059.03;;;15.12;100.00
70968;BME280;58629;48.808;8.820;2023-09-19T07:11:22;97061.16;;;15.17;100.00
70968;BME280;58629;48.808;8.820;2023-09-19T07:13:48;97066.97;;;15.24;100.00
70968;BME280;58629;48.808;8.820;2023-09-19T07:16:14;97071.91;;;15.35;100.00
70968;BME280;58629;48.808;8.820;2023-09-19T07:18:52;97068.22;;;15.41;100.00
70968;BME280;58629;48.808;8.820;2023-09-19T07:21:18;97073.75;;;15.47;100.00
70968;BME280;58629;48.808;8.820;2023-09-19T07:23:43;97072.03;;;15.62;100.00
70968;BME280;58629;48.808;8.820;2023-09-19T07:26:08;97073.53;;;15.72;100.00
70968;BME280;58629;48.808;8.820;2023-09-19T07:28:33;97072.03;;;15.71;100.00
70968;BME280;58629;48.808;8.820;2023-09-19T07:31:04;97070.44;;;15.74;100.00
70968;BME280;58629;48.808;8.820;2023-09-19T07:33:30;97073.41;;;15.76;100.00
70968;BME280;58629;48.808;8.820;2023-09-19T07:35:56;97077.88;;;15.88;100.00
70968;BME280;58629;48.808;8.820;2023-09-19T07:38:21;97080.09;;;15.89;100.00
70968;BME280;58629;48.808;8.820;2023-09-19T07:40:47;97079.53;;;15.94;100.00
70968;BME280;58629;48.808;8.820;2023-09-19T07:43:13;97080.16;;;16.07;100.00
70968;BME280;58629;48.808;8.820;2023-09-19T07:45:38;97077.06;;;16.18;100.00
70968;BME280;58629;48.808;8.820;2023-09-19T07:48:04;97078.97;;;16.26;100.00
70968;BME280;58629;48.808;8.820;2023-09-19T07:50:33;97083.59;;;16.26;100.00
70968;BME280;58629;48.808;8.820;2023-09-19T07:52:58;97081.34;;;16.24;100.00
70968;BME280;58629;48.808;8.820;2023-09-19T07:55:24;97100.06;;;16.24;100.00
70968;BME280;58629;48.808;8.820;2023-09-19T07:57:51;97097.09;;;16.22;100.00
70968;BME280;58629;48.808;8.820;2023-09-19T08:00:16;97101.09;;;16.18;100.00
70968;BME280;58629;48.808;8.820;2023-09-19T08:02:42;97103.03;;;16.17;100.00
70968;BME280;58629;48.808;8.820;2023-09-19T08:05:12;97103.19;;;16.23;100.00
70968;BME280;58629;48.808;8.820;2023-09-19T08:07:41;97102.72;;;16.15;100.00
70968;BME280;58629;48.808;8.820;2023-09-19T08:10:07;97104.69;;;16.24;100.00
70968;BME280;58629;48.808;8.820;2023-09-19T08:12:34;97107.50;;;16.38;100.00
70968;BME280;58629;48.808;8.820;2023-09-19T08:15:04;97113.00;;;16.35;100.00
70968;BME280;58629;48.808;8.820;2023-09-19T08:17:34;97109.75;;;16.58;99.81
70968;BME280;58629;48.808;8.820;2023-09-19T08:20:00;97114.09;;;16.74;98.50
70968;BME280;58629;48.808;8.820;2023-09-19T08:22:26;97110.06;;;16.87;96.28
70968;BME280;58629;48.808;8.820;2023-09-19T08:24:52;97113.75;;;16.99;96.89
70968;BME280;58629;48.808;8.820;2023-09-19T08:27:17;97119.25;;;17.04;95.79
70968;BME280;58629;48.808;8.820;2023-09-19T08:29:44;97115.53;;;17.11;94.85
70968;BME280;58629;48.808;8.820;2023-09-19T08:32:10;97118.47;;;17.22;95.74
70968;BME280;58629;48.808;8.820;2023-09-19T08:34:35;97116.22;;;17.29;89.55
70968;BME280;58629;48.808;8.820;2023-09-19T08:37:03;97119.88;;;17.59;94.83
70968;BME280;58629;48.808;8.820;2023-09-19T08:39:30;97118.63;;;17.78;88.09
70968;BME280;58629;48.808;8.820;2023-09-19T08:41:59;97116.16;;;17.89;84.71
70968;BME280;58629;48.808;8.820;2023-09-19T08:44:26;97116.75;;;18.17;85.14
70968;BME280;58629;48.808;8.820;2023-09-19T08:46:55;97128.06;;;18.45;84.70
70968;BME280;58629;48.808;8.820;2023-09-19T08:49:35;97117.78;;;18.19;85.57
70968;BME280;58629;48.808;8.820;2023-09-19T08:52:10;97126.03;;;18.07;81.81
70968;BME280;58629;48.808;8.820;2023-09-19T08:54:39;97126.91;;;18.13;80.84
70968;BME280;58629;48.808;8.820;2023-09-19T08:57:08;97128.00;;;18.30;79.26
70968;BME280;58629;48.808;8.820;2023-09-19T08:59:37;97137.16;;;18.47;80.85
70968;BME280;58629;48.808;8.820;2023-09-19T09:02:10;97134.66;;;18.35;84.03
70968;BME280;58629;48.808;8.820;2023-09-19T09:04:39;97134.34;;;18.42;81.48
70968;BME280;58629;48.808;8.820;2023-09-19T09:07:10;97132.66;;;18.68;77.65
70968;BME280;58629;48.808;8.820;2023-09-19T09:09:36;97145.75;;;18.75;77.42
70968;BME280;58629;48.808;8.820;2023-09-19T09:12:02;97145.63;;;18.69;73.32
70968;BME280;58629;48.808;8.820;2023-09-19T09:14:28;97147.16;;;18.38;74.11
70968;BME280;58629;48.808;8.820;2023-09-19T09:16:55;97146.88;;;18.12;76.15
70968;BME280;58629;48.808;8.820;2023-09-19T09:19:24;97147.66;;;18.03;75.07
70968;BME280;58629;48.808;8.820;2023-09-19T09:21:51;97147.38;;;18.01;76.67
70968;BME280;58629;48.808;8.820;2023-09-19T09:24:29;97144.91;;;18.45;72.29
70968;BME280;58629;48.808;8.820;2023-09-19T09:26:56;97138.44;;;18.28;73.17
70968;BME280;58629;48.808;8.820;2023-09-19T09:29:49;97152.44;;;18.32;70.78
70968;BME280;58629;48.808;8.820;2023-09-19T09:34:56;97145.13;;;18.56;73.44
70968;BME280;58629;48.808;8.820;2023-09-19T09:37:22;97152.59;;;18.52;70.36
70968;BME280;58629;48.808;8.820;2023-09-19T09:39:56;97149.06;;;18.46;69.93
70968;BME280;58629;48.808;8.820;2023-09-19T09:42:33;97135.06;;;18.18;69.83
70968;BME280;58629;48.808;8.820;2023-09-19T09:45:20;97153.97;;;18.71;72.51
70968;BME280;58629;48.808;8.820;2023-09-19T09:47:58;97147.53;;;18.92;70.57
70968;BME280;58629;48.808;8.820;2023-09-19T09:50:32;97156.41;;;18.98;67.45
70968;BME280;58629;48.808;8.820;2023-09-19T09:53:03;97150.28;;;19.36;66.87
70968;BME280;58629;48.808;8.820;2023-09-19T09:58:49;97137.81;;;19.82;63.64
70968;BME280;58629;48.808;8.820;2023-09-19T10:01:14;97131.41;;;20.29;63.01
70968;BME280;58629;48.808;8.820;2023-09-19T10:03:41;97133.22;;;20.58;65.96
70968;BME280;58629;48.808;8.820;2023-09-19T10:06:17;97130.16;;;20.70;62.36
70968;BME280;58629;48.808;8.820;2023-09-19T10:09:07;97125.72;;;20.88;60.62
70968;BME280;58629;48.808;8.820;2023-09-19T10:11:35;97138.13;;;20.39;61.76
70968;BME280;58629;48.808;8.820;2023-09-19T10:14:03;97126.97;;;20.26;61.15
70968;BME280;58629;48.808;8.820;2023-09-19T10:16:32;97126.16;;;20.20;59.42
70968;BME280;58629;48.808;8.820;2023-09-19T10:19:01;97122.06;;;20.45;59.75
70968;BME280;58629;48.808;8.820;2023-09-19T10:21:30;97113.38;;;20.55;60.70
70968;BME280;58629;48.808;8.820;2023-09-19T10:23:58;97110.19;;;20.77;60.59
70968;BME280;58629;48.808;8.820;2023-09-19T10:26:26;97110.59;;;20.70;57.78
70968;BME280;58629;48.808;8.820;2023-09-19T10:28:52;97114.97;;;20.67;60.69
70968;BME280;58629;48.808;8.820;2023-09-19T10:31:21;97109.00;;;20.58;61.78
70968;BME280;58629;48.808;8.820;2023-09-19T10:33:49;97113.13;;;20.33;60.01
70968;BME280;58629;48.808;8.820;2023-09-19T10:36:15;97124.06;;;19.95;60.89
70968;BME280;58629;48.808;8.820;2023-09-19T10:38:43;97121.44;;;19.80;63.01
70968;BME280;58629;48.808;8.820;2023-09-19T10:41:10;97134.94;;;19.86;62.34
70968;BME280;58629;48.808;8.820;2023-09-19T10:43:39;97124.38;;;19.82;63.55
70968;BME280;58629;48.808;8.820;2023-09-19T10:46:09;97132.91;;;20.16;61.11
70968;BME280;58629;48.808;8.820;2023-09-19T10:48:38;97118.75;;;20.01;60.25
70968;BME280;58629;48.808;8.820;2023-09-19T10:51:11;97124.72;;;20.25;60.43
70968;BME280;58629;48.808;8.820;2023-09-19T10:53:54;97125.88;;;20.38;58.53
70968;BME280;58629;48.808;8.820;2023-09-19T10:56:29;97122.84;;;20.51;57.56
70968;BME280;58629;48.808;8.820;2023-09-19T10:59:07;97117.47;;;20.71;57.79
70968;BME280;58629;48.808;8.820;2023-09-19T11:01:46;97117.34;;;21.06;56.83
70968;BME280;58629;48.808;8.820;2023-09-19T11:07:07;97125.06;;;20.52;61.12
70968;BME280;58629;48.808;8.820;2023-09-19T11:09:49;97115.81;;;20.53;63.10
70968;BME280;58629;48.808;8.820;2023-09-19T11:18:50;97103.91;;;21.68;55.62
70968;BME280;58629;48.808;8.820;2023-09-19T11:26:44;97108.22;;;21.23;55.46
70968;BME280;58629;48.808;8.820;2023-09-19T11:29:28;97111.19;;;20.80;56.37
70968;BME280;58629;48.808;8.820;2023-09-19T11:31:55;97105.31;;;21.01;55.26
70968;BME280;58629;48.808;8.820;2023-09-19T11:42:43;97097.50;;;21.03;54.40
70968;BME280;58629;48.808;8.820;2023-09-19T11:48:24;97093.31;;;21.28;55.75
70968;BME280;58629;48.808;8.820;2023-09-19T11:50:53;97089.56;;;21.82;54.36
70968;BME280;58629;48.808;8.820;2023-09-19T11:53:18;97091.97;;;21.80;51.78
70968;BME280;58629;48.808;8.820;2023-09-19T11:55:45;97090.34;;;21.26;54.29
70968;BME280;58629;48.808;8.820;2023-09-19T11:58:11;97091.28;;;21.48;53.18
70968;BME280;58629;48.808;8.820;2023-09-19T12:00:39;97075.84;;;21.86;50.58
70968;BME280;58629;48.808;8.820;2023-09-19T12:03:10;97078.94;;;22.10;51.47
70968;BME280;58629;48.808;8.820;2023-09-19T12:05:43;97076.28;;;22.26;50.81
70968;BME280;58629;48.808;8.820;2023-09-19T12:08:08;97075.28;;;22.18;49.78
70968;BME280;58629;48.808;8.820;2023-09-19T12:10:47;97069.66;;;22.22;49.47
70968;BME280;58629;48.808;8.820;2023-09-19T12:13:17;97073.47;;;22.52;48.62
70968;BME280;58629;48.808;8.820;2023-09-19T12:15:43;97072.06;;;22.68;48.40
70968;BME280;58629;48.808;8.820;2023-09-19T12:18:25;97070.16;;;22.26;50.58
70968;BME280;58629;48.808;8.820;2023-09-19T12:20:50;97061.91;;;22.52;48.95
70968;BME280;58629;48.808;8.820;2023-09-19T12:23:17;97056.38;;;22.13;49.43
70968;BME280;58629;48.808;8.820;2023-09-19T12:25:43;97069.13;;;21.70;50.76
70968;BME280;58629;48.808;8.820;2023-09-19T12:28:13;97060.66;;;21.51;51.68
70968;BME280;58629;48.808;8.820;2023-09-19T12:30:39;97054.06;;;21.95;53.11
70968;BME280;58629;48.808;8.820;2023-09-19T12:33:17;97060.31;;;22.17;51.87
70968;BME280;58629;48.808;8.820;2023-09-19T12:35:44;97054.16;;;22.11;52.64
70968;BME280;58629;48.808;8.820;2023-09-19T12:38:10;97048.06;;;22.16;50.95
70968;BME280;58629;48.808;8.820;2023-09-19T12:40:37;97040.28;;;22.35;49.18
70968;BME280;58629;48.808;8.820;2023-09-19T12:43:03;97044.00;;;22.54;50.99
70968;BME280;58629;48.808;8.820;2023-09-19T12:45:30;97032.31;;;22.90;49.90
70968;BME280;58629;48.808;8.820;2023-09-19T12:51:05;97039.00;;;22.19;49.95
70968;BME280;58629;48.808;8.820;2023-09-19T12:53:44;97036.50;;;21.63;50.44
70968;BME280;58629;48.808;8.820;2023-09-19T12:56:15;97038.50;;;21.31;53.28
70968;BME280;58629;48.808;8.820;2023-09-19T12:58:57;97029.38;;;22.02;52.40
70968;BME280;58629;48.808;8.820;2023-09-19T13:01:26;97035.28;;;21.69;51.66
70968;BME280;58629;48.808;8.820;2023-09-19T13:04:11;97030.63;;;21.64;51.44
70968;BME280;58629;48.808;8.820;2023-09-19T13:06:37;97033.47;;;21.92;49.93
70968;BME280;58629;48.808;8.820;2023-09-19T13:09:09;97031.41;;;22.29;49.85
70968;BME280;58629;48.808;8.820;2023-09-19T13:11:36;97034.00;;;22.01;51.00
70968;BME280;58629;48.808;8.820;2023-09-19T13:17:04;97030.84;;;21.61;51.79
70968;BME280;58629;48.808;8.820;2023-09-19T13:19:42;97029.56;;;21.93;52.84
70968;BME280;58629;48.808;8.820;2023-09-19T13:25:10;97026.09;;;22.46;47.14
70968;BME280;58629;48.808;8.820;2023-09-19T13:27:43;97028.28;;;22.41;47.21
70968;BME280;58629;48.808;8.820;2023-09-19T13:30:10;97031.97;;;22.44;48.49
70968;BME280;58629;48.808;8.820;2023-09-19T13:32:36;97028.28;;;22.47;47.14
70968;BME280;58629;48.808;8.820;2023-09-19T13:35:02;97020.88;;;22.31;47.87
70968;BME280;58629;48.808;8.820;2023-09-19T13:37:30;97021.56;;;22.15;47.95
70968;BME280;58629;48.808;8.820;2023-09-19T13:39:55;97017.41;;;21.72;49.94
70968;BME280;58629;48.808;8.820;2023-09-19T13:42:24;97018.56;;;21.59;50.38
70968;BME280;58629;48.808;8.820;2023-09-19T13:44:50;97018.13;;;21.24;51.77
70968;BME280;58629;48.808;8.820;2023-09-19T13:47:15;97016.59;;;21.18;51.93
70968;BME280;58629;48.808;8.820;2023-09-19T13:49:41;97012.94;;;21.21;51.86
70968;BME280;58629;48.808;8.820;2023-09-19T13:52:08;97013.31;;;21.03;53.12
70968;BME280;58629;48.808;8.820;2023-09-19T13:54:34;97015.66;;;20.95;53.23